Time;durP1;ratioP1;P1;durP2;ratioP2;P2;SDS_P1;SDS_P2;PMS_P1;PMS_P2;Temp;Humidity;BMP_temperature;BMP_pressure;BME280_temperature;BME280_humidity;BME280_pressure;Samples;Min_cycle;Max_cycle;Signal;HPM_P1;HPM_P2
2023/05/18 00:01:03;;;;;;;;;;;;;;;;;;5039670;28;19909;-80
2023/05/18 00:03:29;;;;;;;;;;;;;;;;;;5036900;28;19913;-79
2023/05/18 00:05:56;;;;;;;;;;;;;;;;;;5043801;28;19995;-79
2023/05/18 00:08:21;;;;;;;;;;;;;;;;;;5040061;28;19972;-78
2023/05/18 00:10:47;;;;;;;;;;;;;;;;;;5039472;28;19941;-78
2023/05/18 00:13:12;;;;;;;;;;;;;;;;;;5041977;28;20417;-78
2023/05/18 00:15:37;;;;;;;;;;;;;;;;;;5040766;28;19920;-80
2023/05/18 00:18:03;;;;;;;;;;;;;;;;;;5042411;28;19959;-80
2023/05/18 00:20:28;;;;;;;;;;;;;;;;;;5041022;28;19913;-80
2023/05/18 00:22:54;;;;;;;;;;;;;;;;;;5036909;28;19917;-80
2023/05/18 00:25:19;;;;;;;;;;;;;;;;;;5037354;28;19956;-79
2023/05/18 00:27:45;;;;;;;;;;;;;;;;;;5042019;28;19912;-79
2023/05/18 00:30:10;;;;;;;;;;;;;;;;;;5025865;28;20003;-79
2023/05/18 00:32:36;;;;;;;;;;;;;;;;;;5038803;28;20437;-79
2023/05/18 00:35:01;;;;;;;;;;;;;;;;;;5043270;28;20391;-79
2023/05/18 00:37:27;;;;;;;;;;;;;;;;;;5036284;28;19913;-79
2023/05/18 00:39:52;;;;;;;;;;;;;;;;;;5037725;28;19971;-79
2023/05/18 00:42:19;;;;;;;;;;;;;;;;;;5033973;28;19925;-79
2023/05/18 00:44:44;;;;;;;;;;;;;;;;;;5038081;28;20295;-79
2023/05/18 00:47:10;;;;;;;;;;;;;;;;;;5041075;28;19917;-78
2023/05/18 00:49:36;;;;;;;;;;;;;;;;;;5049792;28;19909;-78
2023/05/18 00:52:01;;;;;;;;;;;;;;;;;;5039017;28;20348;-79
2023/05/18 00:54:26;;;;;;;;;;;;;;;;;;5049363;28;20102;-79
2023/05/18 00:56:52;;;;;;;;;;;;;;;;;;5044253;28;19919;-79
2023/05/18 00:59:17;;;;;;;;;;;;;;;;;;5046619;28;19921;-79
2023/05/18 01:01:45;;;;;;;;;;;;;;;;;;5046416;28;19943;-80
2023/05/18 01:04:13;;;;;;;;;;;;;;;;;;5056999;28;19936;-79
2023/05/18 01:06:39;;;;;;;;;;;;;;;;;;5046240;28;19959;-79
2023/05/18 01:09:05;;;;;;;;;;;;;;;;;;5041146;28;19913;-79
2023/05/18 01:11:30;;;;;;;;;;;;;;;;;;5065024;28;20369;-79
2023/05/18 01:13:56;;;;;;;;;;;;;;;;;;5055638;28;20431;-78
2023/05/18 01:16:22;;;;;;;;;;;;;;;;;;5037376;28;19960;-79
2023/05/18 01:18:49;;;;;;;;;;;;;;;;;;5036357;28;19951;-79
2023/05/18 01:21:18;;;;;;;;;;;;;;;;;;5041062;28;19913;-80
2023/05/18 01:23:43;;;;;;;;;;;;;;;;;;5040876;28;19900;-79
2023/05/18 01:26:10;;;;;;;;;;;;;;;;;;5066582;28;20352;-80
2023/05/18 01:28:36;;;;;;;;;;;;;;;;;;5039402;28;20356;-80
2023/05/18 01:31:01;;;;;;;;;;;;;;;;;;5038895;28;19920;-79
2023/05/18 01:33:26;;;;;;;;;;;;;;;;;;5041076;28;19913;-79
2023/05/18 01:35:52;;;;;;;;;;;;;;;;;;5063553;28;19925;-79
2023/05/18 01:38:17;;;;;;;;;;;;;;;;;;5035954;28;19925;-79
2023/05/18 01:40:44;;;;;;;;;;;;;;;;;;5035905;28;19913;-79
2023/05/18 01:43:09;;;;;;;;;;;;;;;;;;5033702;28;20319;-79
2023/05/18 01:45:34;;;;;;;;;;;;;;;;;;5035268;28;19912;-79
2023/05/18 01:48:00;;;;;;;;;;;;;;;;;;5034316;28;20321;-80
2023/05/18 01:50:25;;;;;;;;;;;;;;;;;;5034742;28;19920;-79
2023/05/18 01:52:50;;;;;;;;;;;;;;;;;;5037849;28;19913;-79
2023/05/18 01:55:16;;;;;;;;;;;;;;;;;;5039715;28;20394;-79
2023/05/18 01:57:41;;;;;;;;;;;;;;;;;;5039765;28;20271;-79
2023/05/18 02:00:06;;;;;;;;;;;;;;;;;;5039310;28;20003;-79
2023/05/18 02:02:41;;;;;;;;;;;;;;;;;;5043491;28;20303;-79
2023/05/18 02:05:11;;;;;;;;;;;;;;;;;;5042074;28;19913;-79
2023/05/18 02:07:36;;;;;;;;;;;;;;;;;;5039833;28;19913;-79
2023/05/18 02:10:02;;;;;;;;;;;;;;;;;;5039455;28;20368;-80
2023/05/18 02:12:28;;;;;;;;;;;;;;;;;;5041839;28;19909;-80
2023/05/18 02:14:54;;;;;;;;;;;;;;;;;;5038698;28;19913;-80
2023/05/18 02:17:20;;;;;;;;;;;;;;;;;;5041408;28;19935;-80
2023/05/18 02:19:46;;;;;;;;;;;;;;;;;;5039694;28;19917;-80
2023/05/18 02:22:11;;;;;;;;;;;;;;;;;;5037931;28;20015;-79
2023/05/18 02:24:36;;;;;;;;;;;;;;;;;;5034471;28;19912;-79
2023/05/18 02:27:02;;;;;;;;;;;;;;;;;;5034116;28;19909;-79
2023/05/18 02:29:27;;;;;;;;;;;;;;;;;;5062029;28;20434;-79
2023/05/18 02:31:53;;;;;;;;;;;;;;;;;;5032130;28;19909;-78
2023/05/18 02:34:20;;;;;;;;;;;;;;;;;;5038568;28;20027;-80
2023/05/18 02:36:47;;;;;;;;;;;;;;;;;;5050033;28;19924;-79
2023/05/18 02:39:12;;;;;;;;;;;;;;;;;;5040892;28;20376;-79
2023/05/18 02:41:38;;;;;;;;;;;;;;;;;;5034530;28;20007;-79
2023/05/18 02:44:03;;;;;;;;;;;;;;;;;;5043473;28;19913;-79
2023/05/18 02:46:28;;;;;;;;;;;;;;;;;;5046173;28;19980;-79
2023/05/18 02:48:54;;;;;;;;;;;;;;;;;;5040459;28;19917;-79
2023/05/18 02:51:20;;;;;;;;;;;;;;;;;;5036859;28;19932;-78
2023/05/18 02:53:46;;;;;;;;;;;;;;;;;;5045108;28;19920;-78
2023/05/18 02:56:13;;;;;;;;;;;;;;;;;;5037621;28;19908;-80
2023/05/18 02:58:45;;;;;;;;;;;;;;;;;;5036189;28;19924;-80
2023/05/18 03:01:28;;;;;;;;;;;;;;;;;;5036088;28;19913;-80
2023/05/18 03:03:53;;;;;;;;;;;;;;;;;;5036296;28;19913;-79
2023/05/18 03:06:22;;;;;;;;;;;;;;;;;;5032185;28;19920;-79
2023/05/18 03:08:47;;;;;;;;;;;;;;;;;;5034001;28;20406;-80
2023/05/18 03:11:13;;;;;;;;;;;;;;;;;;5037257;28;19909;-80
2023/05/18 03:13:39;;;;;;;;;;;;;;;;;;5036562;28;19940;-79
2023/05/18 03:16:04;;;;;;;;;;;;;;;;;;5038750;28;20451;-80
2023/05/18 03:18:30;;;;;;;;;;;;;;;;;;5042930;28;19963;-80
2023/05/18 03:21:00;;;;;;;;;;;;;;;;;;5036958;28;19916;-80
2023/05/18 03:23:26;;;;;;;;;;;;;;;;;;5036304;28;19912;-80
2023/05/18 03:25:53;;;;;;;;;;;;;;;;;;5038987;28;19913;-80
2023/05/18 03:28:19;;;;;;;;;;;;;;;;;;5039126;28;19915;-78
2023/05/18 03:30:44;;;;;;;;;;;;;;;;;;5037262;28;19919;-80
2023/05/18 03:33:10;;;;;;;;;;;;;;;;;;5039574;28;19912;-80
2023/05/18 03:35:36;;;;;;;;;;;;;;;;;;5041834;28;19932;-80
2023/05/18 03:38:01;;;;;;;;;;;;;;;;;;5037173;28;19999;-80
2023/05/18 03:40:28;;;;;;;;;;;;;;;;;;5040453;28;19959;-80
2023/05/18 03:42:53;;;;;;;;;;;;;;;;;;5024173;28;19912;-80
2023/05/18 03:45:18;;;;;;;;;;;;;;;;;;5036261;28;19975;-79
2023/05/18 03:47:44;;;;;;;;;;;;;;;;;;5031964;28;19920;-78
2023/05/18 03:50:09;;;;;;;;;;;;;;;;;;5033524;28;20372;-79
2023/05/18 03:52:35;;;;;;;;;;;;;;;;;;5063668;28;19913;-79
2023/05/18 03:55:01;;;;;;;;;;;;;;;;;;5036015;28;20280;-79
2023/05/18 03:57:27;;;;;;;;;;;;;;;;;;5037894;28;19920;-79
2023/05/18 03:59:53;;;;;;;;;;;;;;;;;;5039127;28;20310;-79
2023/05/18 04:02:18;;;;;;;;;;;;;;;;;;5039023;28;19920;-79
2023/05/18 04:04:47;;;;;;;;;;;;;;;;;;5040035;28;19908;-79
2023/05/18 04:07:12;;;;;;;;;;;;;;;;;;5043700;28;20040;-78
2023/05/18 04:09:37;;;;;;;;;;;;;;;;;;5042724;28;20392;-78
2023/05/18 04:12:03;;;;;;;;;;;;;;;;;;5040762;28;19920;-80
2023/05/18 04:14:31;;;;;;;;;;;;;;;;;;5042435;28;19972;-80
2023/05/18 04:17:03;;;;;;;;;;;;;;;;;;5041858;28;20372;-80
2023/05/18 04:19:28;;;;;;;;;;;;;;;;;;5040658;28;19924;-79
2023/05/18 04:21:53;;;;;;;;;;;;;;;;;;5040808;28;20372;-79
2023/05/18 04:24:20;;;;;;;;;;;;;;;;;;5040563;28;19963;-80
2023/05/18 04:26:45;;;;;;;;;;;;;;;;;;5039484;28;20012;-80
2023/05/18 04:29:12;;;;;;;;;;;;;;;;;;5047659;28;20013;-79
2023/05/18 04:31:40;;;;;;;;;;;;;;;;;;5049392;28;19913;-80
2023/05/18 04:34:06;;;;;;;;;;;;;;;;;;5046960;28;19947;-81
2023/05/18 04:36:31;;;;;;;;;;;;;;;;;;5059552;28;19929;-80
2023/05/18 04:39:02;;;;;;;;;;;;;;;;;;5053129;28;19920;-79
2023/05/18 04:41:28;;;;;;;;;;;;;;;;;;5036756;28;19967;-78
2023/05/18 04:43:54;;;;;;;;;;;;;;;;;;5032071;28;19972;-79
2023/05/18 04:46:22;;;;;;;;;;;;;;;;;;5045003;28;19913;-81
2023/05/18 04:48:48;;;;;;;;;;;;;;;;;;5045167;28;19915;-80
2023/05/18 04:51:16;;;;;;;;;;;;;;;;;;5046514;28;19955;-79
2023/05/18 04:53:41;;;;;;;;;;;;;;;;;;5053186;28;19899;-81
2023/05/18 04:56:07;;;;;;;;;;;;;;;;;;5064203;28;19912;-81
2023/05/18 04:58:32;;;;;;;;;;;;;;;;;;5063658;28;19901;-80
2023/05/18 05:00:58;;;;;;;;;;;;;;;;;;5056543;28;19913;-78
2023/05/18 05:03:23;;;;;;;;;;;;;;;;;;5052158;28;19909;-81
2023/05/18 05:05:48;;;;;;;;;;;;;;;;;;5089543;28;19892;-82
2023/05/18 05:08:14;;;;;;;;;;;;;;;;;;5051811;28;19913;-79
2023/05/18 05:10:40;;;;;;;;;;;;;;;;;;5053977;28;19892;-80
2023/05/18 05:13:05;;;;;;;;;;;;;;;;;;5050454;28;19971;-81
2023/05/18 05:15:31;;;;;;;;;;;;;;;;;;5041824;28;19916;-80
2023/05/18 05:17:56;;;;;;;;;;;;;;;;;;5038048;28;20277;-82
2023/05/18 05:20:22;;;;;;;;;;;;;;;;;;5041820;28;19916;-82
2023/05/18 05:22:47;;;;;;;;;;;;;;;;;;5034028;28;19912;-82
2023/05/18 05:25:15;;;;;;;;;;;;;;;;;;5041738;28;20016;-83
2023/05/18 05:27:41;;;;;;;;;;;;;;;;;;5047394;28;19917;-83
2023/05/18 05:30:06;;;;;;;;;;;;;;;;;;5057790;28;19905;-83
2023/05/18 05:32:34;;;;;;;;;;;;;;;;;;5057115;28;19905;-84
2023/05/18 05:35:25;;;;;;;;;;;;;;;;;;5057699;28;19913;-83
2023/05/18 05:37:51;;;;;;;;;;;;;;;;;;5058983;28;19949;-81
2023/05/18 05:40:16;;;;;;;;;;;;;;;;;;5059180;28;19921;-82
2023/05/18 05:42:44;;;;;;;;;;;;;;;;;;5062729;28;19923;-81
2023/05/18 05:45:10;;;;;;;;;;;;;;;;;;5060306;28;19952;-82
2023/05/18 05:47:42;;;;;;;;;;;;;;;;;;5060227;28;19893;-82
2023/05/18 05:50:07;;;;;;;;;;;;;;;;;;5056197;28;19974;-82
2023/05/18 05:52:33;;;;;;;;;;;;;;;;;;5067929;28;19893;-82
2023/05/18 05:54:58;;;;;;;;;;;;;;;;;;5056381;28;19917;-82
2023/05/18 05:57:24;;;;;;;;;;;;;;;;;;5056014;28;19912;-82
2023/05/18 05:59:50;;;;;;;;;;;;;;;;;;5054544;28;19923;-83
2023/05/18 06:02:15;;;;;;;;;;;;;;;;;;5037871;28;19909;-83
2023/05/18 06:04:40;;;;;;;;;;;;;;;;;;5053720;28;20406;-82
2023/05/18 06:07:06;;;;;;;;;;;;;;;;;;5037390;28;19940;-82
2023/05/18 06:09:31;;;;;;;;;;;;;;;;;;5036936;28;19893;-82
2023/05/18 06:11:56;;;;;;;;;;;;;;;;;;5053116;28;19916;-82
2023/05/18 06:14:23;;;;;;;;;;;;;;;;;;5054003;28;19952;-83
2023/05/18 06:16:49;;;;;;;;;;;;;;;;;;5053260;28;19909;-83
2023/05/18 06:19:15;;;;;;;;;;;;;;;;;;5063017;28;20018;-83
2023/05/18 06:21:40;;;;;;;;;;;;;;;;;;5052205;28;19928;-82
2023/05/18 06:24:06;;;;;;;;;;;;;;;;;;5053674;28;19901;-82
2023/05/18 06:26:42;;;;;;;;;;;;;;;;;;5040678;28;19909;-82
2023/05/18 06:29:27;;;;;;;;;;;;;;;;;;5046155;28;19913;-83
2023/05/18 06:32:25;;;;;;;;;;;;;;;;;;5051540;28;19956;-83
2023/05/18 06:34:53;;;;;;;;;;;;;;;;;;5053703;28;19898;-83
2023/05/18 06:37:20;;;;;;;;;;;;;;;;;;5072168;28;19958;-83
2023/05/18 06:39:45;;;;;;;;;;;;;;;;;;5050103;28;19908;-82
2023/05/18 06:42:10;;;;;;;;;;;;;;;;;;5053452;28;19917;-83
2023/05/18 06:44:49;;;;;;;;;;;;;;;;;;5056088;28;19893;-83
2023/05/18 06:47:17;;;;;;;;;;;;;;;;;;5054232;28;19920;-83
2023/05/18 06:49:42;;;;;;;;;;;;;;;;;;5053131;28;20011;-83
2023/05/18 06:52:08;;;;;;;;;;;;;;;;;;5061858;28;19893;-83
2023/05/18 06:54:34;;;;;;;;;;;;;;;;;;5056042;28;20425;-83
2023/05/18 06:57:00;;;;;;;;;;;;;;;;;;5052765;28;19913;-83
2023/05/18 06:59:25;;;;;;;;;;;;;;;;;;5055006;28;20031;-83
2023/05/18 07:01:51;;;;;;;;;;;;;;;;;;5054670;28;19917;-84
2023/05/18 07:04:18;;;;;;;;;;;;;;;;;;5053143;28;19977;-83
2023/05/18 07:06:43;;;;;;;;;;;;;;;;;;5053222;28;19897;-83
2023/05/18 07:09:08;;;;;;;;;;;;;;;;;;5064597;28;19913;-83
2023/05/18 07:11:34;;;;;;;;;;;;;;;;;;5054222;28;19912;-83
2023/05/18 07:13:59;;;;;;;;;;;;;;;;;;5053472;28;19913;-83
2023/05/18 07:16:24;;;;;;;;;;;;;;;;;;5055423;28;19920;-83
2023/05/18 07:18:50;;;;;;;;;;;;;;;;;;5051458;28;19921;-82
2023/05/18 07:21:15;;;;;;;;;;;;;;;;;;5057330;28;19900;-83
2023/05/18 07:23:40;;;;;;;;;;;;;;;;;;5059763;28;19913;-82
2023/05/18 07:26:08;;;;;;;;;;;;;;;;;;5053880;28;19919;-83
2023/05/18 07:28:34;;;;;;;;;;;;;;;;;;5055656;28;19912;-83
2023/05/18 07:31:00;;;;;;;;;;;;;;;;;;5058815;28;20384;-82
2023/05/18 07:33:25;;;;;;;;;;;;;;;;;;5063839;28;19917;-83
2023/05/18 07:35:51;;;;;;;;;;;;;;;;;;5045373;28;19917;-83
2023/05/18 07:38:16;;;;;;;;;;;;;;;;;;5047383;28;20008;-83
2023/05/18 07:40:41;;;;;;;;;;;;;;;;;;5051300;28;19919;-83
2023/05/18 07:43:07;;;;;;;;;;;;;;;;;;5049001;28;19921;-83
2023/05/18 07:45:32;;;;;;;;;;;;;;;;;;5056040;28;19912;-83
2023/05/18 07:47:57;;;;;;;;;;;;;;;;;;5047424;28;19913;-83
2023/05/18 07:50:23;;;;;;;;;;;;;;;;;;5044951;28;19920;-82
2023/05/18 07:52:48;;;;;;;;;;;;;;;;;;5042909;28;19959;-83
2023/05/18 07:55:13;;;;;;;;;;;;;;;;;;5043509;28;19913;-83
2023/05/18 07:57:39;;;;;;;;;;;;;;;;;;5054371;28;19920;-83
2023/05/18 08:00:05;;;;;;;;;;;;;;;;;;5042821;28;19917;-83
2023/05/18 08:02:38;;;;;;;;;;;;;;;;;;5042116;28;19963;-82
2023/05/18 08:05:03;;;;;;;;;;;;;;;;;;5043009;28;19917;-83
2023/05/18 08:07:30;;;;;;;;;;;;;;;;;;5041443;28;20365;-83
2023/05/18 08:09:55;;;;;;;;;;;;;;;;;;5041441;28;19920;-82
2023/05/18 08:12:21;;;;;;;;;;;;;;;;;;5044950;28;19913;-84
2023/05/18 08:14:47;;;;;;;;;;;;;;;;;;5040932;28;19913;-83
2023/05/18 08:17:12;;;;;;;;;;;;;;;;;;5041792;28;19931;-84
2023/05/18 08:19:38;;;;;;;;;;;;;;;;;;5038503;28;19940;-83
2023/05/18 08:22:03;;;;;;;;;;;;;;;;;;5043310;28;19916;-83
2023/05/18 08:24:28;;;;;;;;;;;;;;;;;;5042204;28;19959;-83
2023/05/18 08:26:53;;;;;;;;;;;;;;;;;;5041124;28;19913;-82
2023/05/18 08:29:19;;;;;;;;;;;;;;;;;;5044271;28;19912;-83
2023/05/18 08:31:45;;;;;;;;;;;;;;;;;;5044800;28;19913;-84
2023/05/18 08:34:11;;;;;;;;;;;;;;;;;;5041094;28;20035;-84
2023/05/18 08:36:36;;;;;;;;;;;;;;;;;;5044517;28;19924;-83
2023/05/18 08:39:02;;;;;;;;;;;;;;;;;;5045254;28;19932;-83
2023/05/18 08:41:27;;;;;;;;;;;;;;;;;;5049096;28;19909;-83
2023/05/18 08:43:52;;;;;;;;;;;;;;;;;;5048097;28;19912;-83
2023/05/18 08:46:17;;;;;;;;;;;;;;;;;;5048091;28;19925;-83
2023/05/18 08:48:43;;;;;;;;;;;;;;;;;;5044804;28;19948;-83
2023/05/18 08:51:08;;;;;;;;;;;;;;;;;;5042755;28;20380;-82
2023/05/18 08:53:33;;;;;;;;;;;;;;;;;;5052802;28;19893;-82
2023/05/18 08:55:59;;;;;;;;;;;;;;;;;;5044542;28;19913;-83
2023/05/18 08:58:24;;;;;;;;;;;;;;;;;;5043905;28;19952;-83
2023/05/18 09:00:53;;;;;;;;;;;;;;;;;;5045672;28;19908;-82
2023/05/18 09:03:18;;;;;;;;;;;;;;;;;;5033758;28;19913;-82
2023/05/18 09:05:43;;;;;;;;;;;;;;;;;;5047995;28;19955;-82
2023/05/18 09:08:09;;;;;;;;;;;;;;;;;;5046974;28;19988;-83
2023/05/18 09:10:34;;;;;;;;;;;;;;;;;;5045583;28;19909;-83
2023/05/18 09:13:00;;;;;;;;;;;;;;;;;;5044182;28;19952;-82
2023/05/18 09:15:26;;;;;;;;;;;;;;;;;;5045250;28;19909;-82
2023/05/18 09:17:52;;;;;;;;;;;;;;;;;;5042430;28;19913;-82
2023/05/18 09:20:17;;;;;;;;;;;;;;;;;;5056550;28;19920;-82
2023/05/18 09:22:43;;;;;;;;;;;;;;;;;;5054871;28;19913;-82
2023/05/18 09:25:09;;;;;;;;;;;;;;;;;;5044999;28;19908;-83
2023/05/18 09:27:34;;;;;;;;;;;;;;;;;;5049757;28;19948;-82
2023/05/18 09:30:00;;;;;;;;;;;;;;;;;;5047258;28;19913;-82
2023/05/18 09:32:25;;;;;;;;;;;;;;;;;;5045627;28;19972;-82
2023/05/18 09:34:50;;;;;;;;;;;;;;;;;;5043743;28;20312;-83
2023/05/18 09:37:16;;;;;;;;;;;;;;;;;;5050191;28;19916;-84
2023/05/18 09:39:42;;;;;;;;;;;;;;;;;;5048038;28;19917;-83
2023/05/18 09:42:07;;;;;;;;;;;;;;;;;;5044976;28;20402;-83
2023/05/18 09:44:32;;;;;;;;;;;;;;;;;;5041823;28;19909;-84
2023/05/18 09:46:58;;;;;;;;;;;;;;;;;;5041602;28;20589;-84
2023/05/18 09:49:23;;;;;;;;;;;;;;;;;;5039222;28;19908;-82
2023/05/18 09:51:48;;;;;;;;;;;;;;;;;;5039419;28;19916;-83
2023/05/18 09:54:13;;;;;;;;;;;;;;;;;;5038397;28;20066;-82
2023/05/18 09:56:39;;;;;;;;;;;;;;;;;;5037558;28;19966;-83
2023/05/18 09:59:04;;;;;;;;;;;;;;;;;;5037256;28;19913;-82
2023/05/18 10:01:29;;;;;;;;;;;;;;;;;;5038407;28;19913;-83
2023/05/18 10:03:55;;;;;;;;;;;;;;;;;;5039518;28;19909;-83
2023/05/18 10:06:21;;;;;;;;;;;;;;;;;;5040095;28;19940;-82
2023/05/18 10:08:46;;;;;;;;;;;;;;;;;;5040720;28;19916;-82
2023/05/18 10:11:11;;;;;;;;;;;;;;;;;;5043375;28;19920;-83
2023/05/18 10:13:37;;;;;;;;;;;;;;;;;;5044601;28;19909;-83
2023/05/18 10:16:02;;;;;;;;;;;;;;;;;;5039558;28;19936;-83
2023/05/18 10:18:28;;;;;;;;;;;;;;;;;;5039655;28;19915;-82
2023/05/18 10:20:53;;;;;;;;;;;;;;;;;;5038839;28;19913;-82
2023/05/18 10:23:18;;;;;;;;;;;;;;;;;;5035309;28;19973;-83
2023/05/18 10:25:44;;;;;;;;;;;;;;;;;;5038139;28;19913;-84
2023/05/18 10:28:09;;;;;;;;;;;;;;;;;;5037280;28;19909;-84
2023/05/18 10:30:35;;;;;;;;;;;;;;;;;;5037751;28;19920;-82
2023/05/18 10:33:00;;;;;;;;;;;;;;;;;;5036245;28;19924;-83
2023/05/18 10:35:27;;;;;;;;;;;;;;;;;;5047381;28;19920;-83
2023/05/18 10:37:52;;;;;;;;;;;;;;;;;;5037537;28;19909;-83
2023/05/18 10:40:17;;;;;;;;;;;;;;;;;;5037776;28;19925;-83
2023/05/18 10:42:43;;;;;;;;;;;;;;;;;;5035694;28;20008;-83
2023/05/18 10:45:08;;;;;;;;;;;;;;;;;;5036575;28;20086;-82
2023/05/18 10:47:34;;;;;;;;;;;;;;;;;;5037015;28;19949;-83
2023/05/18 10:49:59;;;;;;;;;;;;;;;;;;5037027;28;19912;-83
2023/05/18 10:52:30;;;;;;;;;;;;;;;;;;5035756;28;19966;-83
2023/05/18 10:54:55;;;;;;;;;;;;;;;;;;5035295;28;19912;-84
2023/05/18 10:57:21;;;;;;;;;;;;;;;;;;5034334;28;19936;-83
2023/05/18 10:59:46;;;;;;;;;;;;;;;;;;5033308;28;19924;-84
2023/05/18 11:02:12;;;;;;;;;;;;;;;;;;5034743;28;19916;-83
2023/05/18 11:04:37;;;;;;;;;;;;;;;;;;5045779;28;19945;-83
2023/05/18 11:07:02;;;;;;;;;;;;;;;;;;5034509;28;20315;-83
2023/05/18 11:09:28;;;;;;;;;;;;;;;;;;5032933;28;19967;-84
2023/05/18 11:11:54;;;;;;;;;;;;;;;;;;5034523;28;19909;-83
2023/05/18 11:14:20;;;;;;;;;;;;;;;;;;5033574;28;19913;-84
2023/05/18 11:16:45;;;;;;;;;;;;;;;;;;5044882;28;19908;-82
2023/05/18 11:19:11;;;;;;;;;;;;;;;;;;5056405;28;20015;-83
2023/05/18 11:21:40;;;;;;;;;;;;;;;;;;5034846;28;19999;-83
2023/05/18 11:24:05;;;;;;;;;;;;;;;;;;5034239;28;19929;-83
2023/05/18 11:26:30;;;;;;;;;;;;;;;;;;5033140;28;20354;-83
2023/05/18 11:28:56;;;;;;;;;;;;;;;;;;5033727;28;19917;-83
2023/05/18 11:31:21;;;;;;;;;;;;;;;;;;5033798;28;19908;-83
2023/05/18 11:33:46;;;;;;;;;;;;;;;;;;5034081;28;20375;-84
2023/05/18 11:36:13;;;;;;;;;;;;;;;;;;5034289;28;20001;-84
2023/05/18 11:38:38;;;;;;;;;;;;;;;;;;5034355;28;19921;-81
2023/05/18 11:41:04;;;;;;;;;;;;;;;;;;5033732;28;19915;-83
2023/05/18 11:43:30;;;;;;;;;;;;;;;;;;5034168;28;19913;-84
2023/05/18 11:45:55;;;;;;;;;;;;;;;;;;5032356;28;19913;-84
2023/05/18 11:48:20;;;;;;;;;;;;;;;;;;5034111;28;19968;-83
2023/05/18 11:50:45;;;;;;;;;;;;;;;;;;5033943;28;19909;-82
2023/05/18 11:53:11;;;;;;;;;;;;;;;;;;5033432;28;19913;-82
2023/05/18 11:55:36;;;;;;;;;;;;;;;;;;5034096;28;19909;-82
2023/05/18 11:58:02;;;;;;;;;;;;;;;;;;5034560;28;20384;-83
2023/05/18 12:00:27;;;;;;;;;;;;;;;;;;5035262;28;20292;-82
2023/05/18 12:02:52;;;;;;;;;;;;;;;;;;5034466;28;19913;-83
2023/05/18 12:05:18;;;;;;;;;;;;;;;;;;5035027;28;20394;-83
2023/05/18 12:07:44;;;;;;;;;;;;;;;;;;5037214;28;19932;-82
2023/05/18 12:10:09;;;;;;;;;;;;;;;;;;5035583;28;19915;-83
2023/05/18 12:12:35;;;;;;;;;;;;;;;;;;5041173;28;20356;-83
2023/05/18 12:15:00;;;;;;;;;;;;;;;;;;5040700;28;20012;-83
2023/05/18 12:17:25;;;;;;;;;;;;;;;;;;5045313;28;20004;-83
2023/05/18 12:19:51;;;;;;;;;;;;;;;;;;5041033;28;19924;-83
2023/05/18 12:22:16;;;;;;;;;;;;;;;;;;5046514;28;19935;-82
2023/05/18 12:24:41;;;;;;;;;;;;;;;;;;5041719;28;19909;-82
2023/05/18 12:27:07;;;;;;;;;;;;;;;;;;5048528;28;20371;-82
2023/05/18 12:29:32;;;;;;;;;;;;;;;;;;5043150;28;20303;-83
2023/05/18 12:31:58;;;;;;;;;;;;;;;;;;5041981;28;20334;-82
2023/05/18 12:34:23;;;;;;;;;;;;;;;;;;5040496;28;19923;-83
2023/05/18 12:36:48;;;;;;;;;;;;;;;;;;5048749;28;19975;-82
2023/05/18 12:39:13;;;;;;;;;;;;;;;;;;5040824;28;19925;-82
2023/05/18 12:41:39;;;;;;;;;;;;;;;;;;5045440;28;19959;-82
2023/05/18 12:44:04;;;;;;;;;;;;;;;;;;5037631;28;19913;-82
2023/05/18 12:46:30;;;;;;;;;;;;;;;;;;5048547;28;19913;-82
2023/05/18 12:48:55;;;;;;;;;;;;;;;;;;5047445;28;19909;-81
2023/05/18 12:51:20;;;;;;;;;;;;;;;;;;5038182;28;20374;-82
2023/05/18 12:53:46;;;;;;;;;;;;;;;;;;5040976;28;19909;-82
2023/05/18 12:56:11;;;;;;;;;;;;;;;;;;5043034;28;19912;-83
2023/05/18 12:58:37;;;;;;;;;;;;;;;;;;5039047;28;19947;-81
2023/05/18 13:01:03;;;;;;;;;;;;;;;;;;5036410;28;19979;-80
2023/05/18 13:03:28;;;;;;;;;;;;;;;;;;5039767;28;19990;-83
2023/05/18 13:05:53;;;;;;;;;;;;;;;;;;5042931;28;19917;-81
2023/05/18 13:08:20;;;;;;;;;;;;;;;;;;5043159;28;19931;-82
2023/05/18 13:10:45;;;;;;;;;;;;;;;;;;5038786;28;19924;-82
2023/05/18 13:13:11;;;;;;;;;;;;;;;;;;5041738;28;19913;-82
2023/05/18 13:15:36;;;;;;;;;;;;;;;;;;5042376;28;19985;-82
2023/05/18 13:18:02;;;;;;;;;;;;;;;;;;5043498;28;19917;-82
2023/05/18 13:20:27;;;;;;;;;;;;;;;;;;5042856;28;20376;-82
2023/05/18 13:22:54;;;;;;;;;;;;;;;;;;5045334;28;19913;-82
2023/05/18 13:25:20;;;;;;;;;;;;;;;;;;5040628;28;19920;-81
2023/05/18 13:27:47;;;;;;;;;;;;;;;;;;5041623;28;19909;-82
2023/05/18 13:30:12;;;;;;;;;;;;;;;;;;5036035;28;19924;-82
2023/05/18 13:32:38;;;;;;;;;;;;;;;;;;5036258;28;20364;-82
2023/05/18 13:35:28;;;;;;;;;;;;;;;;;;5034789;28;19924;-82
2023/05/18 13:37:53;;;;;;;;;;;;;;;;;;5041278;28;19913;-82
2023/05/18 13:40:18;;;;;;;;;;;;;;;;;;5035738;28;19917;-83
2023/05/18 13:42:44;;;;;;;;;;;;;;;;;;5059976;28;19913;-83
2023/05/18 13:45:09;;;;;;;;;;;;;;;;;;5034824;28;19915;-82
2023/05/18 13:47:34;;;;;;;;;;;;;;;;;;5035514;28;19913;-82
2023/05/18 13:50:00;;;;;;;;;;;;;;;;;;5039468;28;19916;-83
2023/05/18 13:52:25;;;;;;;;;;;;;;;;;;5034416;28;19916;-83
2023/05/18 13:54:50;;;;;;;;;;;;;;;;;;5033265;28;19925;-82
2023/05/18 13:57:16;;;;;;;;;;;;;;;;;;5035825;28;19913;-82
2023/05/18 13:59:41;;;;;;;;;;;;;;;;;;5034972;28;19913;-82
2023/05/18 14:02:06;;;;;;;;;;;;;;;;;;5042854;28;19913;-82
2023/05/18 14:04:31;;;;;;;;;;;;;;;;;;5035235;28;19944;-82
2023/05/18 14:06:57;;;;;;;;;;;;;;;;;;5033882;28;19962;-83
2023/05/18 14:09:22;;;;;;;;;;;;;;;;;;5035388;28;19909;-83
2023/05/18 14:11:48;;;;;;;;;;;;;;;;;;5035592;28;19920;-82
2023/05/18 14:14:13;;;;;;;;;;;;;;;;;;5036555;28;19917;-82
2023/05/18 14:16:38;;;;;;;;;;;;;;;;;;5035262;28;19913;-82
2023/05/18 14:19:03;;;;;;;;;;;;;;;;;;5039776;28;19913;-82
2023/05/18 14:21:30;;;;;;;;;;;;;;;;;;5067656;28;19912;-82
2023/05/18 14:23:55;;;;;;;;;;;;;;;;;;5040066;28;19963;-83
2023/05/18 14:26:21;;;;;;;;;;;;;;;;;;5038531;28;19916;-83
2023/05/18 14:28:46;;;;;;;;;;;;;;;;;;5043417;28;19915;-82
2023/05/18 14:31:12;;;;;;;;;;;;;;;;;;5043761;28;19913;-83
2023/05/18 14:33:37;;;;;;;;;;;;;;;;;;5045412;28;19913;-82
2023/05/18 14:36:02;;;;;;;;;;;;;;;;;;5048564;28;19917;-83
2023/05/18 14:38:28;;;;;;;;;;;;;;;;;;5051257;28;19919;-82
2023/05/18 14:40:53;;;;;;;;;;;;;;;;;;5047059;28;19913;-82
2023/05/18 14:43:18;;;;;;;;;;;;;;;;;;5042115;28;19913;-82
2023/05/18 14:45:44;;;;;;;;;;;;;;;;;;5041635;28;19999;-82
2023/05/18 14:48:10;;;;;;;;;;;;;;;;;;5050214;28;19914;-83
2023/05/18 14:50:35;;;;;;;;;;;;;;;;;;5038208;28;19917;-83
2023/05/18 14:53:00;;;;;;;;;;;;;;;;;;5034508;28;19951;-83
2023/05/18 14:55:26;;;;;;;;;;;;;;;;;;5034255;28;19913;-83
2023/05/18 14:57:51;;;;;;;;;;;;;;;;;;5034089;28;19913;-83
2023/05/18 15:00:16;;;;;;;;;;;;;;;;;;5033669;28;19917;-82
2023/05/18 15:02:42;;;;;;;;;;;;;;;;;;5035888;28;20279;-83
2023/05/18 15:05:07;;;;;;;;;;;;;;;;;;5043647;28;19959;-83
2023/05/18 15:07:32;;;;;;;;;;;;;;;;;;5041708;28;19916;-83
2023/05/18 15:09:58;;;;;;;;;;;;;;;;;;5035571;28;19971;-82
2023/05/18 15:12:23;;;;;;;;;;;;;;;;;;5033776;28;19909;-79
2023/05/18 15:14:49;;;;;;;;;;;;;;;;;;5035905;28;19935;-79
2023/05/18 15:17:14;;;;;;;;;;;;;;;;;;5041234;28;20007;-80
2023/05/18 15:19:39;;;;;;;;;;;;;;;;;;5041580;28;19956;-79
2023/05/18 15:22:05;;;;;;;;;;;;;;;;;;5044526;28;20404;-84
2023/05/18 15:24:30;;;;;;;;;;;;;;;;;;5040963;28;19917;-78
2023/05/18 15:26:56;;;;;;;;;;;;;;;;;;5029067;28;19920;-79
2023/05/18 15:29:21;;;;;;;;;;;;;;;;;;5037813;28;19913;-77
2023/05/18 15:31:49;;;;;;;;;;;;;;;;;;5039565;28;21365;-80
2023/05/18 15:34:14;;;;;;;;;;;;;;;;;;5033769;28;19928;-80
2023/05/18 15:36:40;;;;;;;;;;;;;;;;;;5034016;28;19921;-79
2023/05/18 15:39:05;;;;;;;;;;;;;;;;;;5027062;28;19921;-79
2023/05/18 15:41:32;;;;;;;;;;;;;;;;;;5031706;28;19917;-81
2023/05/18 15:43:57;;;;;;;;;;;;;;;;;;5032493;28;19920;-80
2023/05/18 15:46:23;;;;;;;;;;;;;;;;;;5039957;28;20300;-80
2023/05/18 15:48:48;;;;;;;;;;;;;;;;;;5027798;28;20391;-75
2023/05/18 15:51:13;;;;;;;;;;;;;;;;;;5035849;28;19920;-76
2023/05/18 15:53:39;;;;;;;;;;;;;;;;;;5039642;28;20375;-80
2023/05/18 15:56:04;;;;;;;;;;;;;;;;;;5043164;28;19909;-79
2023/05/18 15:58:30;;;;;;;;;;;;;;;;;;5040394;28;19913;-76
2023/05/18 16:00:55;;;;;;;;;;;;;;;;;;5043117;28;19915;-80
2023/05/18 16:03:21;;;;;;;;;;;;;;;;;;5054263;28;19924;-79
2023/05/18 16:05:46;;;;;;;;;;;;;;;;;;5042163;28;19912;-78
2023/05/18 16:08:11;;;;;;;;;;;;;;;;;;5042350;28;20318;-78
2023/05/18 16:10:37;;;;;;;;;;;;;;;;;;5040816;28;19967;-78
2023/05/18 16:13:04;;;;;;;;;;;;;;;;;;5037141;28;19917;-78
2023/05/18 16:15:29;;;;;;;;;;;;;;;;;;5042194;28;19915;-79
2023/05/18 16:17:55;;;;;;;;;;;;;;;;;;5039151;28;20011;-80
2023/05/18 16:20:20;;;;;;;;;;;;;;;;;;5041621;28;19932;-80
2023/05/18 16:22:46;;;;;;;;;;;;;;;;;;5040108;28;19920;-80
2023/05/18 16:25:11;;;;;;;;;;;;;;;;;;5043048;28;19999;-80
2023/05/18 16:27:37;;;;;;;;;;;;;;;;;;5039493;28;19913;-80
2023/05/18 16:30:02;;;;;;;;;;;;;;;;;;5041928;28;19916;-80
2023/05/18 16:32:27;;;;;;;;;;;;;;;;;;5039693;28;19916;-80
2023/05/18 16:34:53;;;;;;;;;;;;;;;;;;5043864;28;19917;-80
2023/05/18 16:37:18;;;;;;;;;;;;;;;;;;5040936;28;19916;-81